createdAt,value
2023-04-15T00:01:03.994Z,10.20
2023-04-15T00:04:06.836Z,11.07
2023-04-15T00:07:09.276Z,9.75
2023-04-15T00:10:11.641Z,9.03
2023-04-15T00:13:14.105Z,8.57
2023-04-15T00:16:18.385Z,8.40
2023-04-15T00:19:21.213Z,10.10
2023-04-15T00:22:23.760Z,9.57
2023-04-15T00:25:26.386Z,10.80
2023-04-15T00:28:31.062Z,10.43
2023-04-15T00:31:34.372Z,8.30
2023-04-15T00:34:37.314Z,10.18
2023-04-15T00:37:39.763Z,9.27
2023-04-15T00:40:43.625Z,9.37
2023-04-15T00:43:46.055Z,8.10
2023-04-15T00:46:50.859Z,10.52
2023-04-15T00:49:53.540Z,11.20
2023-04-15T00:52:56.195Z,11.13
2023-04-15T00:55:58.646Z,12.43
2023-04-15T00:59:02.387Z,11.37
2023-04-15T01:02:05.777Z,10.48
2023-04-15T01:05:08.622Z,10.43
2023-04-15T01:08:11.017Z,13.05
2023-04-15T01:11:13.843Z,11.60
2023-04-15T01:14:16.361Z,13.50
2023-04-15T01:17:19.167Z,12.60
2023-04-15T01:20:22.249Z,12.55
2023-04-15T01:23:24.905Z,11.68
2023-04-15T01:26:27.593Z,11.70
2023-04-15T01:29:32.875Z,9.53
2023-04-15T01:32:37.008Z,9.07
2023-04-15T01:35:39.850Z,11.50
2023-04-15T01:38:42.387Z,14.98
2023-04-15T01:41:45.479Z,11.97
2023-04-15T01:44:47.988Z,10.50
2023-04-15T01:47:51.099Z,12.13
2023-04-15T01:50:57.254Z,12.32
2023-04-15T01:53:59.712Z,10.65
2023-04-15T01:57:02.359Z,12.83
2023-04-15T02:00:07.797Z,11.40
2023-04-15T02:03:19.374Z,11.73
2023-04-15T02:06:21.894Z,11.38
2023-04-15T02:09:24.315Z,11.93
2023-04-15T02:12:27.300Z,10.30
2023-04-15T02:15:29.856Z,10.90
2023-04-15T02:18:32.785Z,9.60
2023-04-15T02:21:35.530Z,8.68
2023-04-15T02:24:38.341Z,8.35
2023-04-15T02:27:40.792Z,8.17
2023-04-15T02:30:43.576Z,9.47
2023-04-15T02:33:46.674Z,10.02
2023-04-15T02:36:49.770Z,11.55
2023-04-15T02:39:52.364Z,8.55
2023-04-15T02:42:55.170Z,8.63
2023-04-15T02:45:57.747Z,8.63
2023-04-15T02:49:00.689Z,9.45
2023-04-15T02:52:03.494Z,11.75
2023-04-15T02:55:06.675Z,8.38
2023-04-15T02:58:09.090Z,8.60
2023-04-15T03:01:11.861Z,8.67
2023-04-15T03:04:15.984Z,7.75
2023-04-15T03:07:18.886Z,8.70
2023-04-15T03:10:22.178Z,9.07
2023-04-15T03:13:24.961Z,9.30
2023-04-15T03:16:28.956Z,8.90
2023-04-15T03:19:31.958Z,7.93
2023-04-15T03:22:35.217Z,9.60
2023-04-15T03:25:38.845Z,8.50
2023-04-15T03:28:42.873Z,10.33
2023-04-15T03:31:45.622Z,8.87
2023-04-15T03:34:48.060Z,11.38
2023-04-15T03:37:50.999Z,10.75
2023-04-15T03:40:53.464Z,9.40
2023-04-15T03:43:57.243Z,8.07
2023-04-15T03:46:59.838Z,8.63
2023-04-15T03:50:02.261Z,9.25
2023-04-15T03:53:04.779Z,7.63
2023-04-15T03:56:07.467Z,9.15
2023-04-15T03:59:10.032Z,9.20
2023-04-15T04:02:12.511Z,9.70
2023-04-15T04:05:15.043Z,8.93
2023-04-15T04:08:19.554Z,8.77
2023-04-15T04:11:22.106Z,8.20
2023-04-15T04:14:29.481Z,8.17
2023-04-15T04:17:31.868Z,8.30
2023-04-15T04:20:35.368Z,8.70
2023-04-15T04:23:37.884Z,7.70
2023-04-15T04:26:40.656Z,7.70
2023-04-15T04:29:43.429Z,9.50
2023-04-15T04:32:46.052Z,9.20
2023-04-15T04:35:48.653Z,9.82
2023-04-15T04:38:51.375Z,9.35
2023-04-15T04:41:54.343Z,10.30
2023-04-15T04:44:56.892Z,9.17
2023-04-15T04:47:59.437Z,9.00
2023-04-15T04:51:02.188Z,9.52
2023-04-15T04:54:05.027Z,8.05
2023-04-15T04:57:08.153Z,10.32
2023-04-15T05:00:11.272Z,9.37
2023-04-15T05:03:14.746Z,8.63
2023-04-15T05:06:17.260Z,8.70
2023-04-15T05:09:20.168Z,8.20
2023-04-15T05:12:22.707Z,9.52
2023-04-15T05:15:25.453Z,8.57
2023-04-15T05:18:27.898Z,12.73
2023-04-15T05:21:31.287Z,8.55
2023-04-15T05:24:33.810Z,8.48
2023-04-15T05:27:36.761Z,9.52
2023-04-15T05:30:39.609Z,8.30
2023-04-15T05:33:43.014Z,11.33
2023-04-15T05:36:45.437Z,8.18
2023-04-15T05:39:48.638Z,7.80
2023-04-15T05:42:51.490Z,8.05
2023-04-15T05:45:54.045Z,9.60
2023-04-15T05:48:56.883Z,9.67
2023-04-15T05:51:59.446Z,5.63
2023-04-15T05:55:02.070Z,6.13
2023-04-15T05:58:04.620Z,5.68
2023-04-15T06:01:07.294Z,7.00
2023-04-15T06:04:10.740Z,5.83
2023-04-15T06:07:13.157Z,7.47
2023-04-15T06:10:16.024Z,6.82
2023-04-15T06:13:18.746Z,7.32
2023-04-15T06:16:21.393Z,7.10
2023-04-15T06:19:24.822Z,8.17
2023-04-15T06:22:27.275Z,8.43
2023-04-15T06:25:29.727Z,7.47
2023-04-15T06:28:32.408Z,7.18
2023-04-15T06:31:35.069Z,5.60
2023-04-15T06:34:37.518Z,5.47
2023-04-15T06:37:39.904Z,6.38
2023-04-15T06:40:42.914Z,6.45
2023-04-15T06:43:45.338Z,5.97
2023-04-15T06:46:47.789Z,6.03
2023-04-15T06:49:50.378Z,5.87
2023-04-15T06:52:54.256Z,6.45
2023-04-15T06:55:57.158Z,6.97
2023-04-15T06:58:59.859Z,5.07
2023-04-15T07:02:02.651Z,5.57
2023-04-15T07:05:07.015Z,6.30
2023-04-15T07:08:09.472Z,5.35
2023-04-15T07:11:12.321Z,6.47
2023-04-15T07:14:14.893Z,5.78
2023-04-15T07:17:17.742Z,5.80
2023-04-15T07:20:20.270Z,5.77
2023-04-15T07:23:23.311Z,7.13
2023-04-15T07:26:25.843Z,6.25
2023-04-15T07:29:28.475Z,6.28
2023-04-15T07:32:31.173Z,6.27
2023-04-15T07:35:34.423Z,6.37
2023-04-15T07:38:37.114Z,7.20
2023-04-15T07:41:39.890Z,5.35
2023-04-15T07:44:42.811Z,5.32
2023-04-15T07:47:45.457Z,4.57
2023-04-15T07:50:49.156Z,6.17
2023-04-15T07:53:51.904Z,4.82
2023-04-15T07:56:54.410Z,5.88
2023-04-15T07:59:56.814Z,4.97
2023-04-15T08:02:59.906Z,4.20
2023-04-15T08:06:02.499Z,6.10
2023-04-15T08:09:05.016Z,4.07
2023-04-15T08:12:09.513Z,4.93
2023-04-15T08:15:13.168Z,5.97
2023-04-15T08:18:15.751Z,4.73
2023-04-15T08:21:20.331Z,3.30
2023-04-15T08:24:26.237Z,3.55
2023-04-15T08:27:28.707Z,3.97
2023-04-15T08:30:31.192Z,4.85
2023-04-15T08:33:33.724Z,3.43
2023-04-15T08:36:36.169Z,3.60
2023-04-15T08:39:38.773Z,3.72
2023-04-15T08:42:47.150Z,4.28
2023-04-15T08:45:51.807Z,2.55
2023-04-15T08:48:57.889Z,2.07
2023-04-15T08:52:00.795Z,2.13
2023-04-15T08:55:04.929Z,1.33
2023-04-15T08:58:07.913Z,1.40
2023-04-15T09:01:15.338Z,1.30
2023-04-15T09:04:18.302Z,1.30
2023-04-15T09:07:20.881Z,1.40
2023-04-15T09:10:23.759Z,1.00
2023-04-15T09:13:26.677Z,2.75
2023-04-15T09:16:29.547Z,2.65
2023-04-15T09:19:34.438Z,1.23
2023-04-15T09:22:38.025Z,1.43
2023-04-15T09:25:44.504Z,1.20
2023-04-15T09:28:47.521Z,1.73
2023-04-15T09:31:50.777Z,1.75
2023-04-15T09:34:53.781Z,1.17
2023-04-15T09:38:07.514Z,1.43
2023-04-15T09:41:19.774Z,1.20
2023-04-15T09:44:26.482Z,1.27
2023-04-15T09:47:31.338Z,1.45
2023-04-15T09:50:41.472Z,2.37
2023-04-15T09:53:43.926Z,1.10
2023-04-15T09:56:47.171Z,1.23
2023-04-15T09:59:51.093Z,1.45
2023-04-15T10:02:53.776Z,1.20
2023-04-15T10:05:58.690Z,1.83
2023-04-15T10:09:01.874Z,1.97
2023-04-15T10:12:05.747Z,0.98
2023-04-15T10:15:14.790Z,1.25
2023-04-15T10:18:20.574Z,0.95
2023-04-15T10:21:23.770Z,0.93
2023-04-15T10:24:27.889Z,0.80
2023-04-15T10:27:31.127Z,0.90
2023-04-15T10:30:34.396Z,0.93
2023-04-15T10:33:38.802Z,0.50
2023-04-15T10:36:41.624Z,0.93
2023-04-15T10:39:44.544Z,1.80
2023-04-15T10:42:47.399Z,1.67
2023-04-15T10:45:49.992Z,1.55
2023-04-15T10:48:54.056Z,1.88
2023-04-15T10:51:59.844Z,2.17
2023-04-15T10:55:11.218Z,2.00
2023-04-15T10:58:15.103Z,2.45
2023-04-15T11:01:20.107Z,2.00
2023-04-15T11:04:58.379Z,1.73
2023-04-15T11:08:00.841Z,2.20
2023-04-15T11:11:03.389Z,2.70
2023-04-15T11:14:05.954Z,3.05
2023-04-15T11:17:08.412Z,2.10
2023-04-15T11:20:16.061Z,1.60
2023-04-15T11:23:20.156Z,1.27
2023-04-15T11:26:27.235Z,0.80
2023-04-15T11:29:32.084Z,0.60
2023-04-15T11:32:35.331Z,0.73
2023-04-15T11:35:38.514Z,0.88
2023-04-15T11:38:45.280Z,1.10
2023-04-15T11:41:47.860Z,1.03
2023-04-15T11:44:51.629Z,1.52
2023-04-15T11:47:54.175Z,1.52
2023-04-15T11:50:58.856Z,2.55
2023-04-15T11:54:01.592Z,0.90
2023-04-15T11:57:04.336Z,2.23
2023-04-15T12:00:07.882Z,0.50
2023-04-15T12:03:20.113Z,0.55
2023-04-15T12:06:24.943Z,0.47
2023-04-15T12:09:28.215Z,0.70
2023-04-15T12:12:30.979Z,0.70
2023-04-15T12:15:33.462Z,0.70
2023-04-15T12:18:38.911Z,0.73
2023-04-15T12:21:44.740Z,1.42
2023-04-15T12:24:48.805Z,0.37
2023-04-15T12:27:52.772Z,0.47
2023-04-15T12:30:55.422Z,0.40
2023-04-15T12:33:59.594Z,0.30
2023-04-15T12:37:05.277Z,0.50
2023-04-15T12:40:08.782Z,0.40
2023-04-15T12:43:11.612Z,0.50
2023-04-15T12:46:14.037Z,0.55
2023-04-15T12:49:19.470Z,0.65
2023-04-15T12:52:22.105Z,0.88
2023-04-15T12:55:24.530Z,0.37
2023-04-15T12:58:27.557Z,0.93
2023-04-15T13:01:30.545Z,1.00
2023-04-15T13:04:33.338Z,1.08
2023-04-15T13:07:35.967Z,0.52
2023-04-15T13:10:38.612Z,1.47
2023-04-15T13:13:41.445Z,0.90
2023-04-15T13:16:44.267Z,0.60
2023-04-15T13:19:46.707Z,0.88
2023-04-15T13:22:49.251Z,1.02
2023-04-15T13:25:52.153Z,0.53
2023-04-15T13:28:54.763Z,0.70
2023-04-15T13:31:57.274Z,1.17
2023-04-15T13:35:00.011Z,1.00
2023-04-15T13:38:02.454Z,1.50
2023-04-15T13:41:05.055Z,1.00
2023-04-15T13:44:07.952Z,1.90
2023-04-15T13:47:11.084Z,2.17
2023-04-15T13:50:13.599Z,1.67
2023-04-15T13:53:16.456Z,1.52
2023-04-15T13:56:18.940Z,2.40
2023-04-15T13:59:22.484Z,3.13
2023-04-15T14:02:24.925Z,1.65
2023-04-15T14:05:27.599Z,3.60
2023-04-15T14:08:30.842Z,1.48
2023-04-15T14:11:35.410Z,2.50
2023-04-15T14:14:38.046Z,1.80
2023-04-15T14:17:42.492Z,2.63
2023-04-15T14:20:45.110Z,1.80
2023-04-15T14:23:47.784Z,1.73
2023-04-15T14:26:50.395Z,1.67
2023-04-15T14:29:54.204Z,1.60
2023-04-15T14:32:56.713Z,1.88
2023-04-15T14:35:59.337Z,1.60
2023-04-15T14:39:01.834Z,3.72
2023-04-15T14:42:04.330Z,2.83
2023-04-15T14:45:07.478Z,2.70
2023-04-15T14:48:10.173Z,3.08
2023-04-15T14:51:12.704Z,3.00
2023-04-15T14:54:15.556Z,2.65
2023-04-15T14:57:18.149Z,3.07
2023-04-15T15:00:20.667Z,3.30
2023-04-15T15:03:23.987Z,3.42
2023-04-15T15:06:26.704Z,4.38
2023-04-15T15:09:29.934Z,4.18
2023-04-15T15:12:33.431Z,3.93
2023-04-15T15:15:37.468Z,4.23
2023-04-15T15:18:40.598Z,2.97
2023-04-15T15:21:43.242Z,3.03
2023-04-15T15:24:46.351Z,4.88
2023-04-15T15:27:49.095Z,2.93
2023-04-15T15:30:51.628Z,3.30
2023-04-15T15:33:54.119Z,4.40
2023-04-15T15:36:57.639Z,3.70
2023-04-15T15:40:00.928Z,3.05
2023-04-15T15:43:04.314Z,2.90
2023-04-15T15:46:06.899Z,3.03
2023-04-15T15:49:09.487Z,3.30
2023-04-15T15:52:12.778Z,2.60
2023-04-15T15:55:15.216Z,4.03
2023-04-15T15:58:17.708Z,3.37
2023-04-15T16:01:20.494Z,2.97
2023-04-15T16:04:23.410Z,1.88
2023-04-15T16:07:26.191Z,1.65
2023-04-15T16:10:28.913Z,0.55
2023-04-15T16:13:31.405Z,1.27
2023-04-15T16:16:33.909Z,0.90
2023-04-15T16:19:37.149Z,0.30
2023-04-15T16:22:39.801Z,0.40
2023-04-15T16:25:43.763Z,0.68
2023-04-15T16:28:46.602Z,1.80
2023-04-15T16:31:49.414Z,0.57
2023-04-15T16:34:53.017Z,0.70
2023-04-15T16:37:55.735Z,1.40
2023-04-15T16:40:59.752Z,1.38
2023-04-15T16:44:03.359Z,0.87
2023-04-15T16:47:06.148Z,1.00
2023-04-15T16:50:09.507Z,0.30
2023-04-15T16:53:12.348Z,0.50
2023-04-15T16:56:14.990Z,2.17
2023-04-15T16:59:17.766Z,1.10
2023-04-15T17:02:21.437Z,1.00
2023-04-15T17:05:24.002Z,1.25
2023-04-15T17:08:26.841Z,2.00
2023-04-15T17:11:29.366Z,1.10
2023-04-15T17:14:33.250Z,2.17
2023-04-15T17:17:36.072Z,1.77
2023-04-15T17:20:39.655Z,3.00
2023-04-15T17:23:42.185Z,2.72
2023-04-15T17:26:44.774Z,2.95
2023-04-15T17:29:47.377Z,2.30
2023-04-15T17:32:51.833Z,3.23
2023-04-15T17:35:54.385Z,2.20
2023-04-15T17:38:57.160Z,2.05
2023-04-15T17:41:59.852Z,1.40
2023-04-15T17:45:02.488Z,2.20
2023-04-15T17:48:06.357Z,2.37
2023-04-15T17:51:09.150Z,1.52
2023-04-15T17:54:11.730Z,1.95
2023-04-15T17:57:14.793Z,1.52
2023-04-15T18:00:18.074Z,2.13
2023-04-15T18:03:20.784Z,1.70
2023-04-15T18:06:23.609Z,3.20
2023-04-15T18:09:28.021Z,4.05
2023-04-15T18:12:31.192Z,5.80
2023-04-15T18:15:34.772Z,3.50
2023-04-15T18:18:37.475Z,5.23
2023-04-15T18:21:40.072Z,4.28
2023-04-15T18:24:42.815Z,4.38
2023-04-15T18:27:45.735Z,3.33
2023-04-15T18:30:48.316Z,3.93
2023-04-15T18:33:51.185Z,3.93
2023-04-15T18:36:55.492Z,4.93
2023-04-15T18:39:58.630Z,6.80
2023-04-15T18:43:01.457Z,8.30
2023-04-15T18:46:08.422Z,5.77
2023-04-15T18:49:14.038Z,5.60
2023-04-15T18:52:16.655Z,4.47
2023-04-15T18:55:19.862Z,4.63
2023-04-15T18:58:22.461Z,5.13
2023-04-15T19:01:25.168Z,4.67
2023-04-15T19:04:29.339Z,6.50
2023-04-15T19:07:33.108Z,5.65
2023-04-15T19:10:35.706Z,5.30
2023-04-15T19:13:38.438Z,6.65
2023-04-15T19:16:41.387Z,5.83
2023-04-15T19:19:44.164Z,6.20
2023-04-15T19:22:47.395Z,5.63
2023-04-15T19:25:50.515Z,6.93
2023-04-15T19:28:53.962Z,10.02
2023-04-15T19:31:56.690Z,10.40
2023-04-15T19:35:00.343Z,13.47
2023-04-15T19:38:03.260Z,10.93
2023-04-15T19:41:06.266Z,11.27
2023-04-15T19:44:08.741Z,9.45
2023-04-15T19:47:13.135Z,9.97
2023-04-15T19:50:17.154Z,10.90
2023-04-15T19:53:20.502Z,12.38
2023-04-15T19:56:24.082Z,9.48
2023-04-15T19:59:26.938Z,9.98
2023-04-15T20:02:30.265Z,11.27
2023-04-15T20:05:33.364Z,11.13
2023-04-15T20:08:36.011Z,12.32
2023-04-15T20:12:06.130Z,11.68
2023-04-15T20:15:02.431Z,11.80
2023-04-15T20:18:06.198Z,11.17
2023-04-15T20:21:08.899Z,12.53
2023-04-15T20:24:11.825Z,12.48
2023-04-15T20:27:15.182Z,12.32
2023-04-15T20:30:18.061Z,11.80
2023-04-15T20:33:22.296Z,12.17
2023-04-15T20:36:24.777Z,15.27
2023-04-15T20:39:27.272Z,12.90
2023-04-15T20:42:36.678Z,14.68
2023-04-15T20:45:39.589Z,11.93
2023-04-15T20:48:41.997Z,11.23
2023-04-15T20:51:44.765Z,12.63
2023-04-15T20:54:47.425Z,13.40
2023-04-15T20:57:49.953Z,18.42
2023-04-15T21:00:54.801Z,13.13
2023-04-15T21:03:58.965Z,11.73
2023-04-15T21:07:01.403Z,13.20
2023-04-15T21:10:04.285Z,11.07
2023-04-15T21:13:07.888Z,10.07
2023-04-15T21:16:10.558Z,9.93
2023-04-15T21:19:13.024Z,9.83
2023-04-15T21:22:15.750Z,10.00
2023-04-15T21:25:18.734Z,10.23
2023-04-15T21:28:21.915Z,13.45
2023-04-15T21:31:24.402Z,10.52
2023-04-15T21:34:26.856Z,9.87
2023-04-15T21:37:29.345Z,9.87
2023-04-15T21:40:31.855Z,10.60
2023-04-15T21:43:34.572Z,12.50
2023-04-15T21:46:37.219Z,15.10
2023-04-15T21:49:42.073Z,16.83
2023-04-15T21:52:45.191Z,18.60
2023-04-15T21:55:48.154Z,19.20
2023-04-15T21:58:51.290Z,20.42
2023-04-15T22:01:53.990Z,17.70
2023-04-15T22:04:56.716Z,17.23
2023-04-15T22:08:02.041Z,17.70
2023-04-15T22:11:04.782Z,17.77
2023-04-15T22:14:07.296Z,18.63
2023-04-15T22:17:09.720Z,17.02
2023-04-15T22:20:13.420Z,16.47
2023-04-15T22:23:17.538Z,15.70
2023-04-15T22:26:20.341Z,17.23
2023-04-15T22:29:23.026Z,17.40
2023-04-15T22:32:25.527Z,16.73
2023-04-15T22:35:27.988Z,20.20
2023-04-15T22:38:31.047Z,18.83
2023-04-15T22:41:33.473Z,19.58
2023-04-15T22:44:35.899Z,20.77
2023-04-15T22:47:38.379Z,19.45
2023-04-15T22:50:41.121Z,18.27
2023-04-15T22:53:43.567Z,17.57
2023-04-15T22:56:46.218Z,16.63
2023-04-15T22:59:48.774Z,17.15
2023-04-15T23:02:51.312Z,16.67
2023-04-15T23:05:53.916Z,15.03
2023-04-15T23:08:56.465Z,15.27
2023-04-15T23:11:58.998Z,16.30
2023-04-15T23:15:01.622Z,17.48
2023-04-15T23:18:05.155Z,19.30
2023-04-15T23:21:07.710Z,18.70
2023-04-15T23:24:10.363Z,17.47
2023-04-15T23:27:12.717Z,19.33
2023-04-15T23:30:15.372Z,21.67
2023-04-15T23:33:17.919Z,17.23
2023-04-15T23:36:21.129Z,16.83
2023-04-15T23:39:23.690Z,14.97
2023-04-15T23:42:26.411Z,16.65
2023-04-15T23:45:28.967Z,18.30
2023-04-15T23:48:31.712Z,16.30
2023-04-15T23:51:34.104Z,15.93
2023-04-15T23:54:37.498Z,14.53
2023-04-15T23:57:41.219Z,15.20
